Ponta Pelada Airport
SBMN : now visible

Airfield :











YOU CAN JOIN US ON...

 
LOGIN :

Register | Disclaimer

   EN    FR    IT 

 









Legend :    VFR   Marginal VFR   IFR   Intensive IFR   Very Intensive IFR
Visi :
Ceiling :
>= 8 km
>= 3000ft
5 to 8 km
1000 to 3000 ft
1500m to 5 km
500 to 1000 ft
800 to 1500m
200 to 500 ft
< 800m
< 200 ft
Symbols :   Thunderstorms  Fog  Heavy snow  Heavy precipitations  Wind > 20 kt






- Airport Elevation : 267 ft
- IATA code : PLL


SBMN - Ponta Pelada

CURRENT METAR :
  • 270500Z 09003KT 9999 SCT010 BKN080 26/25 Q1011

EXPIRED METARs :
  • 270400Z 08003KT 9999 SCT010 BKN080 26/26 Q1012
  • 270300Z 08001KT 9999 SCT010 BKN080 26/26 Q1012

TAF TAF SBMN
Valid from the 27 at 06:00 until the 27 at 18:00 UTC


270400Z 2706/2718 09004KT 9999 SCT015 TN25/2707Z TX31/2718Z
BECMG 2706/2708 04005KT 9999 FEW020
BECMG 2708/2710 02005KT SCT010
BECMG 2714/2716 08007KT SCT020 FEW025TCU RMK PAZ



MET'MAP, your aeronautical weather chart ! - Copyright ORBIFLY December 2007 - Disclaimer

ORBIFLY MET'MAP TEAM :

Programming & Development : Alexandra Zaïnal
Concept & original design : Baudouin d'Aumeries
Assistance for programming : Marc-Olivier Méhu
Technical & hardware support : Manuel Goepfert

Contact : metmap@orbifly.com




SOURCES & CREDITS :

   NOAA       Earth
Advisory